createdAt,value
2019-04-28T00:01:04.302Z,2.77
2019-04-28T00:03:35.953Z,2.98
2019-04-28T00:06:07.575Z,2.80
2019-04-28T00:08:39.538Z,2.67
2019-04-28T00:11:11.837Z,2.90
2019-04-28T00:13:43.087Z,3.20
2019-04-28T00:16:14.409Z,2.77
2019-04-28T00:18:45.718Z,3.35
2019-04-28T00:21:36.443Z,3.08
2019-04-28T00:24:26.709Z,2.70
2019-04-28T00:27:02.807Z,3.25
2019-04-28T00:29:40.459Z,3.17
2019-04-28T00:32:08.557Z,3.00
2019-04-28T00:34:41.596Z,3.12
2019-04-28T00:37:37.870Z,3.05
2019-04-28T00:40:11.200Z,3.55
2019-04-28T00:42:42.636Z,3.35
2019-04-28T00:45:15.021Z,3.52
2019-04-28T00:47:46.308Z,3.55
2019-04-28T00:50:18.054Z,3.20
2019-04-28T00:52:49.181Z,2.87
2019-04-28T00:55:21.049Z,3.40
2019-04-28T00:57:53.531Z,3.00
2019-04-28T01:00:26.480Z,2.98
2019-04-28T01:02:57.726Z,3.10
2019-04-28T01:05:28.926Z,3.25
2019-04-28T01:08:01.159Z,3.10
2019-04-28T01:10:32.939Z,3.50
2019-04-28T01:13:04.672Z,3.20
2019-04-28T01:15:59.383Z,3.05
2019-04-28T01:18:42.730Z,3.20
2019-04-28T01:21:14.261Z,3.65
2019-04-28T01:23:45.464Z,3.22
2019-04-28T01:26:16.733Z,3.40
2019-04-28T01:28:49.669Z,3.30
2019-04-28T01:31:44.274Z,3.25
2019-04-28T01:34:21.542Z,3.17
2019-04-28T01:36:52.854Z,3.37
2019-04-28T01:39:24.095Z,3.10
2019-04-28T01:41:55.357Z,3.27
2019-04-28T01:44:26.653Z,3.02
2019-04-28T01:47:00.949Z,3.22
2019-04-28T01:49:31.114Z,2.40
2019-04-28T01:52:02.379Z,2.95
2019-04-28T01:54:33.929Z,2.60
2019-04-28T01:57:05.178Z,2.00
2019-04-28T01:59:36.839Z,1.87
2019-04-28T02:02:10.140Z,1.52
2019-04-28T02:04:41.551Z,1.32
2019-04-28T02:07:12.851Z,1.20
2019-04-28T02:09:44.162Z,1.25
2019-04-28T02:12:15.495Z,1.72
2019-04-28T02:14:46.768Z,1.75
2019-04-28T02:17:18.076Z,1.47
2019-04-28T02:19:49.121Z,1.30
2019-04-28T02:22:31.796Z,1.30
2019-04-28T02:25:03.315Z,1.25
2019-04-28T02:27:34.662Z,1.55
2019-04-28T02:30:11.525Z,1.60
2019-04-28T02:32:41.900Z,1.07
2019-04-28T02:35:13.745Z,1.30
2019-04-28T02:37:44.955Z,1.15
2019-04-28T02:40:17.159Z,1.30
2019-04-28T02:42:48.401Z,1.05
2019-04-28T02:45:22.061Z,0.93
2019-04-28T02:47:56.405Z,1.00
2019-04-28T02:50:52.359Z,0.95
2019-04-28T02:53:33.244Z,0.82
2019-04-28T02:56:02.187Z,1.15
2019-04-28T02:58:33.447Z,0.82
2019-04-28T03:01:12.810Z,1.02
2019-04-28T03:03:40.649Z,0.70
2019-04-28T03:06:11.118Z,0.90
2019-04-28T03:08:42.400Z,1.00
2019-04-28T03:11:13.699Z,0.80
2019-04-28T03:13:44.962Z,0.90
2019-04-28T03:16:16.229Z,1.00
2019-04-28T03:18:47.535Z,0.98
2019-04-28T03:21:21.201Z,0.90
2019-04-28T03:23:52.446Z,1.05
2019-04-28T03:26:51.859Z,1.20
2019-04-28T03:29:46.578Z,0.80
2019-04-28T03:32:43.822Z,0.70
2019-04-28T03:35:04.772Z,0.70
2019-04-28T03:37:36.143Z,0.60
2019-04-28T03:40:10.871Z,0.70
2019-04-28T03:42:41.935Z,0.60
2019-04-28T03:45:21.136Z,0.78
2019-04-28T03:47:53.125Z,0.80
2019-04-28T03:50:25.009Z,0.80
2019-04-28T03:53:01.092Z,0.62
2019-04-28T03:55:34.941Z,0.70
2019-04-28T03:58:04.765Z,0.80
2019-04-28T04:00:36.100Z,0.88
2019-04-28T04:03:10.941Z,0.90
2019-04-28T04:05:41.913Z,1.22
2019-04-28T04:08:13.444Z,1.00
2019-04-28T04:10:53.641Z,0.80
2019-04-28T04:13:33.004Z,0.90
2019-04-28T04:16:14.511Z,0.85
2019-04-28T04:18:50.632Z,0.70
2019-04-28T04:21:21.650Z,0.80
2019-04-28T04:23:53.359Z,1.12
2019-04-28T04:26:24.757Z,0.80
2019-04-28T04:28:55.923Z,0.88
2019-04-28T04:31:27.100Z,0.80
2019-04-28T04:34:00.747Z,0.80
2019-04-28T04:36:31.697Z,0.62
2019-04-28T04:39:03.173Z,0.80
2019-04-28T04:41:36.143Z,0.60
2019-04-28T04:44:07.394Z,0.80
2019-04-28T04:46:41.245Z,0.70
2019-04-28T04:49:11.981Z,0.70
2019-04-28T04:51:44.172Z,0.90
2019-04-28T04:54:16.114Z,0.70
2019-04-28T04:56:50.025Z,0.70
2019-04-28T04:59:20.909Z,0.62
2019-04-28T05:02:25.452Z,0.70
2019-04-28T05:04:51.674Z,1.30
2019-04-28T05:07:23.139Z,0.80
2019-04-28T05:09:54.808Z,0.78
2019-04-28T05:12:25.854Z,0.90
2019-04-28T05:14:57.087Z,0.70
2019-04-28T05:17:30.098Z,0.82
2019-04-28T05:20:01.388Z,1.20
2019-04-28T05:22:35.825Z,1.10
2019-04-28T05:25:30.999Z,1.00
2019-04-28T05:28:03.043Z,0.80
2019-04-28T05:30:34.991Z,0.70
2019-04-28T05:33:07.253Z,1.20
2019-04-28T05:35:39.717Z,0.90
2019-04-28T05:38:11.008Z,1.00
2019-04-28T05:40:42.597Z,0.95
2019-04-28T05:43:14.705Z,0.70
2019-04-28T05:45:46.327Z,1.30
2019-04-28T05:48:20.372Z,0.90
2019-04-28T05:51:01.817Z,0.80
2019-04-28T05:53:40.381Z,0.75
2019-04-28T05:56:22.749Z,1.00
2019-04-28T05:59:09.658Z,1.00
2019-04-28T06:02:00.721Z,0.80
2019-04-28T06:04:32.075Z,0.90
2019-04-28T06:07:10.588Z,1.40
2019-04-28T06:09:50.114Z,0.88
2019-04-28T06:12:21.930Z,0.80
2019-04-28T06:14:53.214Z,0.70
2019-04-28T06:17:24.844Z,0.80
2019-04-28T06:19:56.243Z,0.72
2019-04-28T06:22:27.378Z,0.70
2019-04-28T06:24:58.671Z,0.90
2019-04-28T06:27:32.623Z,0.70
2019-04-28T06:30:04.357Z,2.45
2019-04-28T06:32:36.164Z,1.02
2019-04-28T06:35:08.470Z,1.02
2019-04-28T06:37:39.943Z,0.98
2019-04-28T06:40:11.291Z,0.95
2019-04-28T06:42:43.108Z,1.30
2019-04-28T06:45:14.773Z,1.10
2019-04-28T06:47:46.472Z,1.10
2019-04-28T06:50:17.747Z,1.30
2019-04-28T06:52:48.897Z,1.00
2019-04-28T06:55:20.122Z,0.95
2019-04-28T06:57:51.786Z,1.07
2019-04-28T07:00:23.201Z,1.40
2019-04-28T07:02:54.515Z,1.20
2019-04-28T07:05:25.960Z,1.05
2019-04-28T07:07:57.170Z,0.93
2019-04-28T07:10:30.387Z,1.10
2019-04-28T07:13:01.670Z,1.42
2019-04-28T07:15:32.789Z,0.95
2019-04-28T07:18:03.918Z,1.10
2019-04-28T07:20:48.386Z,1.10
2019-04-28T07:23:19.672Z,0.82
2019-04-28T07:25:51.260Z,0.90
2019-04-28T07:28:22.482Z,1.05
2019-04-28T07:30:53.792Z,0.90
2019-04-28T07:33:35.499Z,0.85
2019-04-28T07:35:57.898Z,1.00
2019-04-28T07:38:29.800Z,1.17
2019-04-28T07:41:01.394Z,1.10
2019-04-28T07:43:32.740Z,1.45
2019-04-28T07:46:04.349Z,1.07
2019-04-28T07:48:35.882Z,1.17
2019-04-28T07:51:08.553Z,1.00
2019-04-28T07:53:45.938Z,0.90
2019-04-28T07:56:17.555Z,0.70
2019-04-28T07:58:48.675Z,0.80
2019-04-28T08:01:20.301Z,0.75
2019-04-28T08:03:51.475Z,0.80
2019-04-28T08:06:23.022Z,0.80
2019-04-28T08:08:54.326Z,0.82
2019-04-28T08:11:25.524Z,0.85
2019-04-28T08:13:56.933Z,0.80
2019-04-28T08:16:28.175Z,0.68
2019-04-28T08:18:59.913Z,0.90
2019-04-28T08:21:31.268Z,0.60
2019-04-28T08:24:02.568Z,0.70
2019-04-28T08:26:36.313Z,0.93
2019-04-28T08:29:08.527Z,0.80
2019-04-28T08:31:50.310Z,0.93
2019-04-28T08:34:22.110Z,0.90
2019-04-28T08:36:53.810Z,0.57
2019-04-28T08:39:26.857Z,0.60
2019-04-28T08:41:58.652Z,0.50
2019-04-28T08:44:29.826Z,0.93
2019-04-28T08:47:01.154Z,0.90
2019-04-28T08:49:32.396Z,0.70
2019-04-28T08:52:04.043Z,0.80
2019-04-28T08:54:36.396Z,0.85
2019-04-28T08:57:08.066Z,0.72
2019-04-28T08:59:39.376Z,0.60
2019-04-28T09:02:10.714Z,0.60
2019-04-28T09:04:42.075Z,0.68
2019-04-28T09:07:14.027Z,0.42
2019-04-28T09:09:45.630Z,0.50
2019-04-28T09:12:17.361Z,0.40
2019-04-28T09:14:48.559Z,0.55
2019-04-28T09:17:19.775Z,0.70
2019-04-28T09:19:51.038Z,0.70
2019-04-28T09:22:22.292Z,0.60
2019-04-28T09:24:56.198Z,0.60
2019-04-28T09:27:27.836Z,0.62
2019-04-28T09:29:59.624Z,0.70
2019-04-28T09:32:31.310Z,0.70
2019-04-28T09:35:06.169Z,0.60
2019-04-28T09:37:38.139Z,0.75
2019-04-28T09:40:17.305Z,0.70
2019-04-28T09:43:07.551Z,0.80
2019-04-28T09:45:53.571Z,0.80
2019-04-28T09:48:24.942Z,0.70
2019-04-28T09:50:56.152Z,0.88
2019-04-28T09:53:27.448Z,0.80
2019-04-28T09:55:58.568Z,0.88
2019-04-28T09:58:29.941Z,1.27
2019-04-28T10:01:01.956Z,1.17
2019-04-28T10:03:33.347Z,1.55
2019-04-28T10:06:04.937Z,1.27
2019-04-28T10:08:37.152Z,1.00
2019-04-28T10:11:08.474Z,1.27
2019-04-28T10:13:40.244Z,1.02
2019-04-28T10:16:11.548Z,0.80
2019-04-28T10:18:43.199Z,0.72
2019-04-28T10:21:14.826Z,1.22
2019-04-28T10:23:49.977Z,1.40
2019-04-28T10:26:21.237Z,1.65
2019-04-28T10:28:52.467Z,2.00
2019-04-28T10:31:24.202Z,2.37
2019-04-28T10:33:58.735Z,2.70
2019-04-28T10:36:31.912Z,2.30
2019-04-28T10:39:25.313Z,1.90
2019-04-28T10:41:56.659Z,1.95
2019-04-28T10:44:30.486Z,1.70
2019-04-28T10:47:02.195Z,2.35
2019-04-28T10:49:34.025Z,2.25
2019-04-28T10:52:07.966Z,2.47
2019-04-28T10:54:39.267Z,2.42
2019-04-28T10:57:10.518Z,2.05
2019-04-28T10:59:42.173Z,2.35
2019-04-28T11:02:14.318Z,2.33
2019-04-28T11:05:09.112Z,2.20
2019-04-28T11:07:40.738Z,2.45
2019-04-28T11:10:20.483Z,2.55
2019-04-28T11:12:51.980Z,2.87
2019-04-28T11:15:34.167Z,3.02
2019-04-28T11:18:07.262Z,2.87
2019-04-28T11:20:38.820Z,2.70
2019-04-28T11:23:10.675Z,3.52
2019-04-28T11:25:42.070Z,3.22
2019-04-28T11:28:13.410Z,3.40
2019-04-28T11:30:44.728Z,3.25
2019-04-28T11:33:43.760Z,3.30
2019-04-28T11:36:16.550Z,3.52
2019-04-28T11:38:49.201Z,3.72
2019-04-28T11:41:20.501Z,3.42
2019-04-28T11:43:51.709Z,3.58
2019-04-28T11:46:24.264Z,4.00
2019-04-28T11:48:55.392Z,3.80
2019-04-28T11:51:27.164Z,3.95
2019-04-28T11:53:58.474Z,3.75
2019-04-28T11:56:40.855Z,4.05
2019-04-28T11:59:02.985Z,3.92
2019-04-28T12:01:34.406Z,4.53
2019-04-28T12:04:07.682Z,4.20
2019-04-28T12:06:39.311Z,4.20
2019-04-28T12:09:47.884Z,4.85
2019-04-28T12:12:54.528Z,3.90
2019-04-28T12:15:38.221Z,4.30
2019-04-28T12:18:28.330Z,4.03
2019-04-28T12:21:00.310Z,3.87
2019-04-28T12:23:31.598Z,4.55
2019-04-28T12:26:03.305Z,3.83
2019-04-28T12:28:34.628Z,3.87
2019-04-28T12:31:06.210Z,4.75
2019-04-28T12:33:37.413Z,4.60
2019-04-28T12:36:09.385Z,4.00
2019-04-28T12:38:40.734Z,4.12
2019-04-28T12:41:11.971Z,3.92
2019-04-28T12:43:43.184Z,3.62
2019-04-28T12:46:14.575Z,4.10
2019-04-28T12:48:45.779Z,3.80
2019-04-28T12:51:17.494Z,3.30
2019-04-28T12:53:50.159Z,4.28
2019-04-28T12:56:21.450Z,4.72
2019-04-28T12:58:54.644Z,4.35
2019-04-28T13:01:35.665Z,3.70
2019-04-28T13:04:27.168Z,3.90
2019-04-28T13:07:05.773Z,3.58
2019-04-28T13:09:37.575Z,4.30
2019-04-28T13:12:08.930Z,3.85
2019-04-28T13:14:40.482Z,3.50
2019-04-28T13:17:11.689Z,3.15
2019-04-28T13:19:42.963Z,3.72
2019-04-28T13:22:14.196Z,3.60
2019-04-28T13:24:45.397Z,3.90
2019-04-28T13:27:16.840Z,3.72
2019-04-28T13:29:48.084Z,3.87
2019-04-28T13:32:21.259Z,3.30
2019-04-28T13:34:53.241Z,2.55
2019-04-28T13:37:25.070Z,3.08
2019-04-28T13:40:04.397Z,2.90
2019-04-28T13:42:35.866Z,3.08
2019-04-28T13:45:12.475Z,3.45
2019-04-28T13:47:43.917Z,4.00
2019-04-28T13:50:34.030Z,4.30
2019-04-28T13:53:06.605Z,4.33
2019-04-28T13:56:06.231Z,3.95
2019-04-28T13:58:42.508Z,3.92
2019-04-28T14:01:36.085Z,3.60
2019-04-28T14:04:41.819Z,3.55
2019-04-28T14:07:13.245Z,2.60
2019-04-28T14:09:44.567Z,2.80
2019-04-28T14:12:15.930Z,2.33
2019-04-28T14:14:47.451Z,3.05
2019-04-28T14:17:18.635Z,2.30
2019-04-28T14:19:49.941Z,2.70
2019-04-28T14:22:21.579Z,2.22
2019-04-28T14:24:52.943Z,2.50
2019-04-28T14:27:24.449Z,2.05
2019-04-28T14:29:55.723Z,2.25
2019-04-28T14:32:27.434Z,3.83
2019-04-28T14:34:58.806Z,3.50
2019-04-28T14:37:31.071Z,3.45
2019-04-28T14:40:02.329Z,2.90
2019-04-28T14:42:35.208Z,3.27
2019-04-28T14:45:08.631Z,2.60
2019-04-28T14:47:40.021Z,2.47
2019-04-28T14:50:11.396Z,2.30
2019-04-28T14:52:42.690Z,2.42
2019-04-28T14:55:14.092Z,2.10
2019-04-28T14:57:45.683Z,1.45
2019-04-28T15:00:21.863Z,1.40
2019-04-28T15:03:04.014Z,1.60
2019-04-28T15:05:54.102Z,2.02
2019-04-28T15:08:43.300Z,2.17
2019-04-28T15:11:26.346Z,1.70
2019-04-28T15:13:57.605Z,1.80
2019-04-28T15:16:28.859Z,1.80
2019-04-28T15:19:00.200Z,1.57
2019-04-28T15:21:31.412Z,1.70
2019-04-28T15:24:02.743Z,1.45
2019-04-28T15:26:34.088Z,1.70
2019-04-28T15:29:05.646Z,1.52
2019-04-28T15:31:36.908Z,1.80
2019-04-28T15:34:08.438Z,1.70
2019-04-28T15:36:39.729Z,1.80
2019-04-28T15:39:12.412Z,2.10
2019-04-28T15:41:44.126Z,2.40
2019-04-28T15:44:15.404Z,1.95
2019-04-28T15:46:47.229Z,2.05
2019-04-28T15:49:18.505Z,2.35
2019-04-28T15:51:50.121Z,2.37
2019-04-28T15:54:21.399Z,2.70
2019-04-28T15:56:52.851Z,2.50
2019-04-28T15:59:25.325Z,2.60
2019-04-28T16:01:56.949Z,2.37
2019-04-28T16:04:28.529Z,2.75
2019-04-28T16:07:00.096Z,2.55
2019-04-28T16:09:31.369Z,2.30
2019-04-28T16:12:02.680Z,2.15
2019-04-28T16:14:34.173Z,2.37
2019-04-28T16:17:05.553Z,2.30
2019-04-28T16:19:37.407Z,2.70
2019-04-28T16:22:09.004Z,2.40
2019-04-28T16:24:40.721Z,2.92
2019-04-28T16:27:11.975Z,2.67
2019-04-28T16:29:43.606Z,2.72
2019-04-28T16:32:15.213Z,2.75
2019-04-28T16:34:46.562Z,2.95
2019-04-28T16:37:18.065Z,2.37
2019-04-28T16:39:50.679Z,2.50
2019-04-28T16:42:22.996Z,2.30
2019-04-28T16:44:55.420Z,2.52
2019-04-28T16:47:27.386Z,2.55
2019-04-28T16:49:58.814Z,2.60
2019-04-28T16:52:30.323Z,2.80
2019-04-28T16:55:16.584Z,3.08
2019-04-28T16:58:01.630Z,3.42
2019-04-28T17:00:47.981Z,3.02
2019-04-28T17:03:19.341Z,2.47
2019-04-28T17:05:50.897Z,2.45
2019-04-28T17:08:22.784Z,3.33
2019-04-28T17:10:54.476Z,3.42
2019-04-28T17:13:26.192Z,2.37
2019-04-28T17:15:57.496Z,2.80
2019-04-28T17:18:29.093Z,2.75
2019-04-28T17:21:01.119Z,2.90
2019-04-28T17:23:32.599Z,2.85
2019-04-28T17:26:04.256Z,3.10
2019-04-28T17:28:35.669Z,2.92
2019-04-28T17:31:07.052Z,4.00
2019-04-28T17:33:38.340Z,2.60
2019-04-28T17:36:09.619Z,2.75
2019-04-28T17:38:40.940Z,2.30
2019-04-28T17:41:13.097Z,3.37
2019-04-28T17:43:44.461Z,3.35
2019-04-28T17:46:15.677Z,3.15
2019-04-28T17:48:53.619Z,2.62
2019-04-28T17:51:25.058Z,2.87
2019-04-28T17:53:56.768Z,3.25
2019-04-28T17:56:28.151Z,2.92
2019-04-28T17:58:59.456Z,2.85
2019-04-28T18:01:59.178Z,3.45
2019-04-28T18:04:49.769Z,2.85
2019-04-28T18:07:26.622Z,3.00
2019-04-28T18:09:58.199Z,2.90
2019-04-28T18:12:29.437Z,3.50
2019-04-28T18:15:11.115Z,3.25
2019-04-28T18:18:07.301Z,2.98
2019-04-28T18:20:39.228Z,3.15
2019-04-28T18:23:11.104Z,3.27
2019-04-28T18:25:42.791Z,3.55
2019-04-28T18:28:14.304Z,2.72
2019-04-28T18:30:53.315Z,3.35
2019-04-28T18:33:42.339Z,2.98
2019-04-28T18:36:19.915Z,2.80
2019-04-28T18:38:59.616Z,3.85
2019-04-28T18:41:45.951Z,3.50
2019-04-28T18:44:20.063Z,3.72
2019-04-28T18:46:51.328Z,3.45
2019-04-28T18:49:23.100Z,4.15
2019-04-28T18:51:54.719Z,3.47
2019-04-28T18:54:25.947Z,3.58
2019-04-28T18:56:57.470Z,3.60
2019-04-28T18:59:28.981Z,4.78
2019-04-28T19:02:11.180Z,4.22
2019-04-28T19:04:42.475Z,4.03
2019-04-28T19:07:16.706Z,4.10
2019-04-28T19:10:03.144Z,4.75
2019-04-28T19:12:57.798Z,5.25
2019-04-28T19:15:51.139Z,4.67
2019-04-28T19:18:27.899Z,5.25
2019-04-28T19:20:59.592Z,4.92
2019-04-28T19:23:30.982Z,4.80
2019-04-28T19:26:02.192Z,4.72
2019-04-28T19:28:33.572Z,4.75
2019-04-28T19:31:05.448Z,5.47
2019-04-28T19:33:36.608Z,5.17
2019-04-28T19:36:08.044Z,5.40
2019-04-28T19:38:39.203Z,5.20
2019-04-28T19:41:10.500Z,5.60
2019-04-28T19:43:42.126Z,4.50
2019-04-28T19:46:15.660Z,5.28
2019-04-28T19:48:47.446Z,5.47
2019-04-28T19:51:31.131Z,5.45
2019-04-28T19:53:54.519Z,5.28
2019-04-28T19:56:33.103Z,5.47
2019-04-28T19:59:17.908Z,5.45
2019-04-28T20:01:49.379Z,5.00
2019-04-28T20:04:20.687Z,5.40
2019-04-28T20:06:52.011Z,4.78
2019-04-28T20:09:24.050Z,4.60
2019-04-28T20:11:55.562Z,4.90
2019-04-28T20:14:27.232Z,4.75
2019-04-28T20:16:58.553Z,4.85
2019-04-28T20:19:30.355Z,4.70
2019-04-28T20:22:01.703Z,5.60
2019-04-28T20:24:46.345Z,4.95
2019-04-28T20:27:06.248Z,5.22
2019-04-28T20:29:37.823Z,4.92
2019-04-28T20:32:09.209Z,4.78
2019-04-28T20:34:40.938Z,5.58
2019-04-28T20:37:23.016Z,5.65
2019-04-28T20:39:58.707Z,5.67
2019-04-28T20:42:46.691Z,7.00
2019-04-28T20:45:18.437Z,6.47
2019-04-28T20:47:49.737Z,5.25
2019-04-28T20:50:21.951Z,5.47
2019-04-28T20:52:53.715Z,5.80
2019-04-28T20:55:24.986Z,5.37
2019-04-28T20:57:57.295Z,5.25
2019-04-28T21:00:28.575Z,4.65
2019-04-28T21:02:59.891Z,5.08
2019-04-28T21:05:31.023Z,5.08
2019-04-28T21:08:02.579Z,6.10
2019-04-28T21:10:38.325Z,6.28
2019-04-28T21:13:07.014Z,6.35
2019-04-28T21:15:39.499Z,5.95
2019-04-28T21:18:11.119Z,5.60
2019-04-28T21:20:42.323Z,5.22
2019-04-28T21:23:13.602Z,5.37
2019-04-28T21:25:45.107Z,5.22
2019-04-28T21:28:16.994Z,4.80
2019-04-28T21:30:48.276Z,4.95
2019-04-28T21:33:19.447Z,5.92
2019-04-28T21:35:51.062Z,5.30
2019-04-28T21:38:22.484Z,5.45
2019-04-28T21:40:54.254Z,6.85
2019-04-28T21:43:34.255Z,9.18
2019-04-28T21:46:24.081Z,8.10
2019-04-28T21:49:04.390Z,7.70
2019-04-28T21:51:35.595Z,6.45
2019-04-28T21:54:06.769Z,6.28
2019-04-28T21:56:38.052Z,5.78
2019-04-28T21:59:09.248Z,5.20
2019-04-28T22:01:41.168Z,5.03
2019-04-28T22:04:12.680Z,5.03
2019-04-28T22:06:44.106Z,4.42
2019-04-28T22:09:16.339Z,4.45
2019-04-28T22:11:48.155Z,4.60
2019-04-28T22:14:19.446Z,4.92
2019-04-28T22:16:51.053Z,4.87
2019-04-28T22:19:22.525Z,4.75
2019-04-28T22:21:53.824Z,4.12
2019-04-28T22:24:37.016Z,4.30
2019-04-28T22:27:12.468Z,4.53
2019-04-28T22:29:43.975Z,5.00
2019-04-28T22:32:15.439Z,4.75
2019-04-28T22:34:46.634Z,3.90
2019-04-28T22:37:17.838Z,4.12
2019-04-28T22:39:49.078Z,4.45
2019-04-28T22:42:20.915Z,4.17
2019-04-28T22:44:52.729Z,4.47
2019-04-28T22:47:23.974Z,4.50
2019-04-28T22:49:55.576Z,4.37
2019-04-28T22:52:26.894Z,3.98
2019-04-28T22:55:17.321Z,4.25
2019-04-28T22:58:04.799Z,4.12
2019-04-28T23:00:55.483Z,3.95
2019-04-28T23:03:35.078Z,4.00
2019-04-28T23:06:06.458Z,3.60
2019-04-28T23:08:38.048Z,4.00
2019-04-28T23:11:09.642Z,4.40
2019-04-28T23:13:40.962Z,4.10
2019-04-28T23:16:12.226Z,4.10
2019-04-28T23:18:43.995Z,3.92
2019-04-28T23:21:38.683Z,3.77
2019-04-28T23:24:10.314Z,4.12
2019-04-28T23:26:41.894Z,3.70
2019-04-28T23:29:13.286Z,4.10
2019-04-28T23:31:44.540Z,4.12
2019-04-28T23:34:16.038Z,4.10
2019-04-28T23:36:47.414Z,4.12
2019-04-28T23:39:18.718Z,4.62
2019-04-28T23:42:20.991Z,3.90
2019-04-28T23:44:52.786Z,3.80
2019-04-28T23:47:24.386Z,4.12
2019-04-28T23:49:56.019Z,4.03
2019-04-28T23:52:56.102Z,4.33
2019-04-28T23:55:27.745Z,4.22
2019-04-28T23:57:59.415Z,4.22
